Impacts TAF Board INFO
FOR SITUATIONAL AWARENESS. NOT TO BE USED FOR FLIGHT PLANNING PURPOSES.
IDs:

KMDW - Chicago/Midway Intl, IL, US

Issued at 2334 UTC 19 Feb 2018
Updated at 0139 UTC 20 Feb 2018
Potential Impact None Slight Moderate High
Time<<21/02Z 21/03Z 21/04Z 21/05Z 21/06Z 21/07Z 21/08Z 21/09Z 21/10Z 21/11Z 21/12Z 21/13Z 21/14Z
Type PRVL PRVL PRVL PRVL
VIS 6 6 6 6
CIG 8 8 8 8
Cover OVC OVC OVC OVC
FltCat IFR IFR IFR IFR
WX BR VCSH BR VCSH BR VCSH BR VCSH
WDir 300 300 300 300
WSpd 12 12 12 12
WGst -- -- -- --

Raw TAF
KMDW 192334Z 2000/2106 20014G23KT 6SM -RA OVC008 WS015/22050KT
  FM200200 21012G18KT 5SM -RA BR VCTS OVC008CB WS015/22050KT
  FM200600 21012KT 3SM RA BR VCTS SCT003 OVC007CB
  TEMPO 2008/2012 1SM TSRA BR OVC003CB
  FM201200 21012G18KT 1 1/2SM -SHRA BR OVC003 WS020/22055KT
  FM201600 21015G22KT 2SM RA BR OVC005 WS020/22055KT
  TEMPO 2016/2020 1SM TSRA BR OVC003CB
  FM202200 24011KT 2SM -SHRA BR OVC004
  FM210200 30012KT 6SM BR VCSH OVC008


METAR Board
Radar Display
Forecast Discussion

FOR SITUATIONAL AWARENESS. NOT TO BE USED FOR FLIGHT PLANNING PURPOSES.